sensor_id;sensor_type;location;lat;lon;timestamp;P1;durP1;ratioP1;P2;durP2;ratioP2
27163;SDS011;14685;50.618;7.024;2023-07-20T00:00:45;7.07;;;3.38;;
27163;SDS011;14685;50.618;7.024;2023-07-20T00:03:13;7.15;;;3.38;;
27163;SDS011;14685;50.618;7.024;2023-07-20T00:05:45;7.23;;;3.40;;
27163;SDS011;14685;50.618;7.024;2023-07-20T00:08:12;10.15;;;3.40;;
27163;SDS011;14685;50.618;7.024;2023-07-20T00:10:40;10.27;;;3.40;;
27163;SDS011;14685;50.618;7.024;2023-07-20T00:13:08;4.65;;;2.80;;
27163;SDS011;14685;50.618;7.024;2023-07-20T00:15:36;5.85;;;2.92;;
27163;SDS011;14685;50.618;7.024;2023-07-20T00:18:04;8.20;;;2.50;;
27163;SDS011;14685;50.618;7.024;2023-07-20T00:20:31;8.32;;;2.55;;
27163;SDS011;14685;50.618;7.024;2023-07-20T00:22:58;5.75;;;2.60;;
27163;SDS011;14685;50.618;7.024;2023-07-20T00:25:25;4.60;;;2.50;;
27163;SDS011;14685;50.618;7.024;2023-07-20T00:27:52;3.45;;;2.20;;
27163;SDS011;14685;50.618;7.024;2023-07-20T00:30:20;6.60;;;2.50;;
27163;SDS011;14685;50.618;7.024;2023-07-20T00:32:47;4.55;;;2.15;;
27163;SDS011;14685;50.618;7.024;2023-07-20T00:35:14;4.70;;;2.45;;
27163;SDS011;14685;50.618;7.024;2023-07-20T00:37:41;5.07;;;2.65;;
27163;SDS011;14685;50.618;7.024;2023-07-20T00:40:08;6.05;;;2.92;;
27163;SDS011;14685;50.618;7.024;2023-07-20T00:42:35;4.10;;;2.72;;
27163;SDS011;14685;50.618;7.024;2023-07-20T00:45:02;5.43;;;2.70;;
27163;SDS011;14685;50.618;7.024;2023-07-20T00:47:29;8.55;;;2.55;;
27163;SDS011;14685;50.618;7.024;2023-07-20T00:49:58;4.55;;;2.53;;
27163;SDS011;14685;50.618;7.024;2023-07-20T00:52:25;6.20;;;2.95;;
27163;SDS011;14685;50.618;7.024;2023-07-20T00:54:54;4.25;;;2.75;;
27163;SDS011;14685;50.618;7.024;2023-07-20T00:57:24;4.65;;;2.83;;
27163;SDS011;14685;50.618;7.024;2023-07-20T00:59:52;6.38;;;3.58;;
27163;SDS011;14685;50.618;7.024;2023-07-20T01:02:20;4.63;;;2.50;;
27163;SDS011;14685;50.618;7.024;2023-07-20T01:04:48;4.63;;;2.97;;
27163;SDS011;14685;50.618;7.024;2023-07-20T01:10:01;3.92;;;2.60;;
27163;SDS011;14685;50.618;7.024;2023-07-20T01:12:42;5.13;;;2.70;;
27163;SDS011;14685;50.618;7.024;2023-07-20T01:15:11;4.00;;;2.70;;
27163;SDS011;14685;50.618;7.024;2023-07-20T01:17:39;5.80;;;2.28;;
27163;SDS011;14685;50.618;7.024;2023-07-20T01:20:06;4.78;;;2.35;;
27163;SDS011;14685;50.618;7.024;2023-07-20T01:25:25;5.50;;;2.92;;
27163;SDS011;14685;50.618;7.024;2023-07-20T01:33:42;3.78;;;2.50;;
27163;SDS011;14685;50.618;7.024;2023-07-20T01:36:11;4.00;;;2.88;;
27163;SDS011;14685;50.618;7.024;2023-07-20T01:38:40;4.32;;;2.72;;
27163;SDS011;14685;50.618;7.024;2023-07-20T01:41:09;6.78;;;3.10;;
27163;SDS011;14685;50.618;7.024;2023-07-20T01:43:37;5.03;;;2.42;;
27163;SDS011;14685;50.618;7.024;2023-07-20T01:46:04;3.33;;;2.85;;
27163;SDS011;14685;50.618;7.024;2023-07-20T01:48:31;5.70;;;2.88;;
27163;SDS011;14685;50.618;7.024;2023-07-20T01:50:58;7.25;;;2.97;;
27163;SDS011;14685;50.618;7.024;2023-07-20T01:53:25;8.50;;;3.45;;
27163;SDS011;14685;50.618;7.024;2023-07-20T01:55:53;6.60;;;2.70;;
27163;SDS011;14685;50.618;7.024;2023-07-20T01:58:23;6.05;;;3.15;;
27163;SDS011;14685;50.618;7.024;2023-07-20T02:00:51;5.90;;;2.80;;
27163;SDS011;14685;50.618;7.024;2023-07-20T02:03:19;4.88;;;2.95;;
27163;SDS011;14685;50.618;7.024;2023-07-20T02:05:48;9.13;;;3.20;;
27163;SDS011;14685;50.618;7.024;2023-07-20T02:08:15;6.50;;;3.22;;
27163;SDS011;14685;50.618;7.024;2023-07-20T02:10:43;4.20;;;2.95;;
27163;SDS011;14685;50.618;7.024;2023-07-20T02:13:12;6.57;;;3.13;;
27163;SDS011;14685;50.618;7.024;2023-07-20T02:15:39;4.30;;;3.00;;
27163;SDS011;14685;50.618;7.024;2023-07-20T02:18:07;4.82;;;3.00;;
27163;SDS011;14685;50.618;7.024;2023-07-20T02:20:34;5.40;;;2.90;;
27163;SDS011;14685;50.618;7.024;2023-07-20T02:23:01;5.40;;;2.55;;
27163;SDS011;14685;50.618;7.024;2023-07-20T02:25:28;4.28;;;2.70;;
27163;SDS011;14685;50.618;7.024;2023-07-20T02:27:55;8.73;;;3.05;;
27163;SDS011;14685;50.618;7.024;2023-07-20T02:30:23;4.85;;;2.58;;
27163;SDS011;14685;50.618;7.024;2023-07-20T02:32:50;3.33;;;2.67;;
27163;SDS011;14685;50.618;7.024;2023-07-20T02:35:17;2.97;;;2.38;;
27163;SDS011;14685;50.618;7.024;2023-07-20T02:37:47;7.55;;;2.72;;
27163;SDS011;14685;50.618;7.024;2023-07-20T02:40:14;4.35;;;2.70;;
27163;SDS011;14685;50.618;7.024;2023-07-20T02:42:41;5.20;;;3.20;;
27163;SDS011;14685;50.618;7.024;2023-07-20T02:45:08;5.40;;;3.10;;
27163;SDS011;14685;50.618;7.024;2023-07-20T02:47:35;2.92;;;2.33;;
27163;SDS011;14685;50.618;7.024;2023-07-20T02:50:02;6.50;;;2.97;;
27163;SDS011;14685;50.618;7.024;2023-07-20T02:52:32;6.45;;;2.60;;
27163;SDS011;14685;50.618;7.024;2023-07-20T02:54:59;6.05;;;3.10;;
27163;SDS011;14685;50.618;7.024;2023-07-20T02:57:26;4.03;;;2.40;;
27163;SDS011;14685;50.618;7.024;2023-07-20T02:59:53;5.18;;;3.10;;
27163;SDS011;14685;50.618;7.024;2023-07-20T03:02:21;4.65;;;2.70;;
27163;SDS011;14685;50.618;7.024;2023-07-20T03:04:48;6.50;;;3.05;;
27163;SDS011;14685;50.618;7.024;2023-07-20T03:07:15;5.32;;;3.17;;
27163;SDS011;14685;50.618;7.024;2023-07-20T03:09:46;4.63;;;2.80;;
27163;SDS011;14685;50.618;7.024;2023-07-20T03:12:14;7.20;;;2.75;;
27163;SDS011;14685;50.618;7.024;2023-07-20T03:14:41;4.22;;;2.90;;
27163;SDS011;14685;50.618;7.024;2023-07-20T03:17:08;3.35;;;2.53;;
27163;SDS011;14685;50.618;7.024;2023-07-20T03:19:35;6.82;;;3.00;;
27163;SDS011;14685;50.618;7.024;2023-07-20T03:22:02;7.38;;;2.67;;
27163;SDS011;14685;50.618;7.024;2023-07-20T03:24:30;4.03;;;2.55;;
27163;SDS011;14685;50.618;7.024;2023-07-20T03:26:57;6.22;;;3.30;;
27163;SDS011;14685;50.618;7.024;2023-07-20T03:29:24;6.13;;;3.13;;
27163;SDS011;14685;50.618;7.024;2023-07-20T03:31:50;6.03;;;3.35;;
27163;SDS011;14685;50.618;7.024;2023-07-20T03:34:17;6.15;;;2.88;;
27163;SDS011;14685;50.618;7.024;2023-07-20T03:36:44;6.55;;;3.35;;
27163;SDS011;14685;50.618;7.024;2023-07-20T03:39:11;4.75;;;2.75;;
27163;SDS011;14685;50.618;7.024;2023-07-20T03:41:38;4.15;;;3.00;;
27163;SDS011;14685;50.618;7.024;2023-07-20T03:44:05;4.78;;;3.08;;
27163;SDS011;14685;50.618;7.024;2023-07-20T03:46:33;6.65;;;3.08;;
27163;SDS011;14685;50.618;7.024;2023-07-20T03:49:00;3.88;;;2.92;;
27163;SDS011;14685;50.618;7.024;2023-07-20T03:51:27;5.25;;;3.00;;
27163;SDS011;14685;50.618;7.024;2023-07-20T03:53:57;3.83;;;2.95;;
27163;SDS011;14685;50.618;7.024;2023-07-20T03:56:27;5.15;;;2.72;;
27163;SDS011;14685;50.618;7.024;2023-07-20T03:58:54;6.13;;;2.42;;
27163;SDS011;14685;50.618;7.024;2023-07-20T04:01:23;6.25;;;3.05;;
27163;SDS011;14685;50.618;7.024;2023-07-20T04:03:50;3.40;;;2.65;;
27163;SDS011;14685;50.618;7.024;2023-07-20T04:06:17;4.45;;;2.63;;
27163;SDS011;14685;50.618;7.024;2023-07-20T04:08:46;5.15;;;2.80;;
27163;SDS011;14685;50.618;7.024;2023-07-20T04:11:15;3.92;;;2.40;;
27163;SDS011;14685;50.618;7.024;2023-07-20T04:13:42;4.15;;;3.03;;
27163;SDS011;14685;50.618;7.024;2023-07-20T04:16:10;4.38;;;2.80;;
27163;SDS011;14685;50.618;7.024;2023-07-20T04:18:41;6.00;;;2.78;;
27163;SDS011;14685;50.618;7.024;2023-07-20T04:21:08;4.20;;;2.60;;
27163;SDS011;14685;50.618;7.024;2023-07-20T04:23:35;4.82;;;2.40;;
27163;SDS011;14685;50.618;7.024;2023-07-20T04:26:08;4.77;;;2.50;;
27163;SDS011;14685;50.618;7.024;2023-07-20T04:28:39;4.88;;;2.53;;
27163;SDS011;14685;50.618;7.024;2023-07-20T04:31:15;5.22;;;2.90;;
27163;SDS011;14685;50.618;7.024;2023-07-20T04:36:09;6.07;;;2.88;;
27163;SDS011;14685;50.618;7.024;2023-07-20T04:38:36;4.45;;;3.10;;
27163;SDS011;14685;50.618;7.024;2023-07-20T04:41:03;5.32;;;2.75;;
27163;SDS011;14685;50.618;7.024;2023-07-20T04:43:31;3.78;;;2.38;;
27163;SDS011;14685;50.618;7.024;2023-07-20T04:45:58;7.13;;;3.20;;
27163;SDS011;14685;50.618;7.024;2023-07-20T04:48:26;6.20;;;3.08;;
27163;SDS011;14685;50.618;7.024;2023-07-20T04:50:56;5.72;;;2.63;;
27163;SDS011;14685;50.618;7.024;2023-07-20T04:53:23;6.20;;;3.20;;
27163;SDS011;14685;50.618;7.024;2023-07-20T04:55:50;6.40;;;2.92;;
27163;SDS011;14685;50.618;7.024;2023-07-20T04:58:19;11.27;;;3.60;;
27163;SDS011;14685;50.618;7.024;2023-07-20T05:00:50;4.85;;;3.00;;
27163;SDS011;14685;50.618;7.024;2023-07-20T05:03:17;7.18;;;3.15;;
27163;SDS011;14685;50.618;7.024;2023-07-20T05:05:46;8.60;;;3.40;;
27163;SDS011;14685;50.618;7.024;2023-07-20T05:08:15;10.05;;;4.53;;
27163;SDS011;14685;50.618;7.024;2023-07-20T05:10:43;9.98;;;4.40;;
27163;SDS011;14685;50.618;7.024;2023-07-20T05:13:10;6.63;;;3.80;;
27163;SDS011;14685;50.618;7.024;2023-07-20T05:15:38;6.75;;;3.50;;
27163;SDS011;14685;50.618;7.024;2023-07-20T05:18:06;9.48;;;3.63;;
27163;SDS011;14685;50.618;7.024;2023-07-20T05:20:34;8.02;;;4.07;;
27163;SDS011;14685;50.618;7.024;2023-07-20T05:23:01;7.65;;;4.10;;
27163;SDS011;14685;50.618;7.024;2023-07-20T05:25:28;8.75;;;4.65;;
27163;SDS011;14685;50.618;7.024;2023-07-20T05:27:56;9.82;;;4.57;;
27163;SDS011;14685;50.618;7.024;2023-07-20T05:30:23;7.10;;;4.88;;
27163;SDS011;14685;50.618;7.024;2023-07-20T05:32:50;9.15;;;5.15;;
27163;SDS011;14685;50.618;7.024;2023-07-20T05:35:19;13.35;;;5.30;;
27163;SDS011;14685;50.618;7.024;2023-07-20T05:37:46;7.75;;;4.85;;
27163;SDS011;14685;50.618;7.024;2023-07-20T05:40:14;9.18;;;5.07;;
27163;SDS011;14685;50.618;7.024;2023-07-20T05:42:45;11.30;;;6.38;;
27163;SDS011;14685;50.618;7.024;2023-07-20T05:45:15;12.07;;;5.47;;
27163;SDS011;14685;50.618;7.024;2023-07-20T05:47:42;8.50;;;5.30;;
27163;SDS011;14685;50.618;7.024;2023-07-20T05:50:10;12.45;;;6.00;;
27163;SDS011;14685;50.618;7.024;2023-07-20T05:52:37;16.90;;;6.53;;
27163;SDS011;14685;50.618;7.024;2023-07-20T05:55:06;9.77;;;6.15;;
27163;SDS011;14685;50.618;7.024;2023-07-20T05:57:33;14.13;;;6.68;;
27163;SDS011;14685;50.618;7.024;2023-07-20T06:00:01;14.45;;;6.75;;
27163;SDS011;14685;50.618;7.024;2023-07-20T06:02:30;13.95;;;6.95;;
27163;SDS011;14685;50.618;7.024;2023-07-20T06:04:59;18.65;;;7.60;;
27163;SDS011;14685;50.618;7.024;2023-07-20T06:07:26;15.10;;;7.72;;
27163;SDS011;14685;50.618;7.024;2023-07-20T06:09:53;13.43;;;7.35;;
27163;SDS011;14685;50.618;7.024;2023-07-20T06:12:20;16.15;;;6.72;;
27163;SDS011;14685;50.618;7.024;2023-07-20T06:14:50;14.10;;;7.13;;
27163;SDS011;14685;50.618;7.024;2023-07-20T06:17:17;13.70;;;7.35;;
27163;SDS011;14685;50.618;7.024;2023-07-20T06:19:43;8.80;;;6.82;;
27163;SDS011;14685;50.618;7.024;2023-07-20T06:22:10;18.70;;;8.20;;
27163;SDS011;14685;50.618;7.024;2023-07-20T06:24:37;13.30;;;7.15;;
27163;SDS011;14685;50.618;7.024;2023-07-20T06:27:04;12.88;;;7.80;;
27163;SDS011;14685;50.618;7.024;2023-07-20T06:29:32;12.82;;;7.20;;
27163;SDS011;14685;50.618;7.024;2023-07-20T06:31:59;12.80;;;7.70;;
27163;SDS011;14685;50.618;7.024;2023-07-20T06:34:26;11.63;;;6.68;;
27163;SDS011;14685;50.618;7.024;2023-07-20T06:36:53;14.95;;;6.80;;
27163;SDS011;14685;50.618;7.024;2023-07-20T06:39:21;11.55;;;6.55;;
27163;SDS011;14685;50.618;7.024;2023-07-20T06:41:51;11.75;;;7.03;;
27163;SDS011;14685;50.618;7.024;2023-07-20T06:44:21;10.07;;;6.22;;
27163;SDS011;14685;50.618;7.024;2023-07-20T06:46:49;12.88;;;6.22;;
27163;SDS011;14685;50.618;7.024;2023-07-20T06:49:26;12.23;;;6.18;;
27163;SDS011;14685;50.618;7.024;2023-07-20T06:51:54;8.30;;;5.45;;
27163;SDS011;14685;50.618;7.024;2023-07-20T06:54:21;9.18;;;5.80;;
27163;SDS011;14685;50.618;7.024;2023-07-20T06:56:49;10.70;;;5.97;;
27163;SDS011;14685;50.618;7.024;2023-07-20T06:59:36;8.00;;;5.07;;
27163;SDS011;14685;50.618;7.024;2023-07-20T07:02:07;7.55;;;6.13;;
27163;SDS011;14685;50.618;7.024;2023-07-20T07:04:40;10.38;;;5.25;;
27163;SDS011;14685;50.618;7.024;2023-07-20T07:07:08;9.57;;;4.75;;
27163;SDS011;14685;50.618;7.024;2023-07-20T07:09:36;7.30;;;4.47;;
27163;SDS011;14685;50.618;7.024;2023-07-20T07:12:03;9.27;;;5.00;;
27163;SDS011;14685;50.618;7.024;2023-07-20T07:14:30;7.15;;;4.25;;
27163;SDS011;14685;50.618;7.024;2023-07-20T07:16:58;10.55;;;5.40;;
27163;SDS011;14685;50.618;7.024;2023-07-20T07:19:30;5.72;;;4.63;;
27163;SDS011;14685;50.618;7.024;2023-07-20T07:21:57;6.97;;;5.25;;
27163;SDS011;14685;50.618;7.024;2023-07-20T07:24:26;9.25;;;5.63;;
27163;SDS011;14685;50.618;7.024;2023-07-20T07:26:55;12.82;;;5.55;;
27163;SDS011;14685;50.618;7.024;2023-07-20T07:29:23;9.45;;;5.00;;
27163;SDS011;14685;50.618;7.024;2023-07-20T07:31:50;9.13;;;5.47;;
27163;SDS011;14685;50.618;7.024;2023-07-20T07:34:17;10.05;;;5.78;;
27163;SDS011;14685;50.618;7.024;2023-07-20T07:36:44;10.27;;;5.78;;
27163;SDS011;14685;50.618;7.024;2023-07-20T07:39:11;8.15;;;5.97;;
27163;SDS011;14685;50.618;7.024;2023-07-20T07:41:41;9.50;;;5.15;;
27163;SDS011;14685;50.618;7.024;2023-07-20T07:44:08;9.65;;;5.90;;
27163;SDS011;14685;50.618;7.024;2023-07-20T07:46:35;12.70;;;5.50;;
27163;SDS011;14685;50.618;7.024;2023-07-20T07:49:02;6.35;;;4.75;;
27163;SDS011;14685;50.618;7.024;2023-07-20T07:51:29;11.73;;;5.07;;
27163;SDS011;14685;50.618;7.024;2023-07-20T07:53:56;9.32;;;5.40;;
27163;SDS011;14685;50.618;7.024;2023-07-20T07:56:25;8.68;;;4.95;;
27163;SDS011;14685;50.618;7.024;2023-07-20T07:58:52;7.10;;;4.80;;
27163;SDS011;14685;50.618;7.024;2023-07-20T08:01:20;9.75;;;4.90;;
27163;SDS011;14685;50.618;7.024;2023-07-20T08:03:48;7.88;;;4.50;;
27163;SDS011;14685;50.618;7.024;2023-07-20T08:06:15;6.88;;;4.20;;
27163;SDS011;14685;50.618;7.024;2023-07-20T08:08:42;5.95;;;4.57;;
27163;SDS011;14685;50.618;7.024;2023-07-20T08:11:09;7.00;;;4.15;;
27163;SDS011;14685;50.618;7.024;2023-07-20T08:13:40;4.80;;;3.75;;
27163;SDS011;14685;50.618;7.024;2023-07-20T08:16:06;4.80;;;3.20;;
27163;SDS011;14685;50.618;7.024;2023-07-20T08:18:34;9.32;;;3.53;;
27163;SDS011;14685;50.618;7.024;2023-07-20T08:21:01;6.22;;;3.13;;
27163;SDS011;14685;50.618;7.024;2023-07-20T08:23:29;6.43;;;3.60;;
27163;SDS011;14685;50.618;7.024;2023-07-20T08:25:56;8.18;;;3.63;;
27163;SDS011;14685;50.618;7.024;2023-07-20T08:28:23;6.97;;;3.78;;
27163;SDS011;14685;50.618;7.024;2023-07-20T08:30:52;5.10;;;3.25;;
27163;SDS011;14685;50.618;7.024;2023-07-20T08:33:20;5.55;;;3.15;;
27163;SDS011;14685;50.618;7.024;2023-07-20T08:35:47;4.05;;;3.00;;
27163;SDS011;14685;50.618;7.024;2023-07-20T08:38:14;5.40;;;2.95;;
27163;SDS011;14685;50.618;7.024;2023-07-20T08:40:42;4.57;;;3.40;;
27163;SDS011;14685;50.618;7.024;2023-07-20T08:43:10;5.30;;;2.35;;
27163;SDS011;14685;50.618;7.024;2023-07-20T08:45:39;5.40;;;2.20;;
27163;SDS011;14685;50.618;7.024;2023-07-20T08:48:07;5.55;;;2.65;;
27163;SDS011;14685;50.618;7.024;2023-07-20T08:50:35;5.95;;;3.03;;
27163;SDS011;14685;50.618;7.024;2023-07-20T08:53:02;4.50;;;3.13;;
27163;SDS011;14685;50.618;7.024;2023-07-20T08:55:29;4.43;;;3.42;;
27163;SDS011;14685;50.618;7.024;2023-07-20T08:57:58;4.00;;;3.20;;
27163;SDS011;14685;50.618;7.024;2023-07-20T09:00:26;2.88;;;2.58;;
27163;SDS011;14685;50.618;7.024;2023-07-20T09:02:56;3.97;;;2.13;;
27163;SDS011;14685;50.618;7.024;2023-07-20T09:05:31;4.57;;;2.00;;
27163;SDS011;14685;50.618;7.024;2023-07-20T09:07:59;7.35;;;3.08;;
27163;SDS011;14685;50.618;7.024;2023-07-20T09:10:26;3.25;;;1.42;;
27163;SDS011;14685;50.618;7.024;2023-07-20T09:12:53;3.05;;;1.90;;
27163;SDS011;14685;50.618;7.024;2023-07-20T09:15:22;1.90;;;1.75;;
27163;SDS011;14685;50.618;7.024;2023-07-20T09:17:50;2.67;;;1.77;;
27163;SDS011;14685;50.618;7.024;2023-07-20T09:20:17;2.70;;;2.20;;
27163;SDS011;14685;50.618;7.024;2023-07-20T09:22:50;5.68;;;2.20;;
27163;SDS011;14685;50.618;7.024;2023-07-20T09:25:19;4.05;;;2.10;;
27163;SDS011;14685;50.618;7.024;2023-07-20T09:27:52;3.03;;;2.00;;
27163;SDS011;14685;50.618;7.024;2023-07-20T09:30:21;4.15;;;2.25;;
27163;SDS011;14685;50.618;7.024;2023-07-20T09:32:57;3.17;;;2.10;;
27163;SDS011;14685;50.618;7.024;2023-07-20T09:35:25;5.05;;;2.97;;
27163;SDS011;14685;50.618;7.024;2023-07-20T09:38:07;4.07;;;2.30;;
27163;SDS011;14685;50.618;7.024;2023-07-20T09:40:38;3.83;;;2.28;;
27163;SDS011;14685;50.618;7.024;2023-07-20T09:43:09;9.27;;;2.40;;
27163;SDS011;14685;50.618;7.024;2023-07-20T09:45:40;2.10;;;1.70;;
27163;SDS011;14685;50.618;7.024;2023-07-20T09:48:11;3.97;;;2.03;;
27163;SDS011;14685;50.618;7.024;2023-07-20T09:50:43;3.38;;;1.90;;
27163;SDS011;14685;50.618;7.024;2023-07-20T09:53:15;6.25;;;2.05;;
27163;SDS011;14685;50.618;7.024;2023-07-20T09:55:45;3.03;;;2.03;;
27163;SDS011;14685;50.618;7.024;2023-07-20T09:58:13;3.08;;;1.98;;
27163;SDS011;14685;50.618;7.024;2023-07-20T10:00:42;4.75;;;1.92;;
27163;SDS011;14685;50.618;7.024;2023-07-20T10:03:18;2.58;;;2.00;;
27163;SDS011;14685;50.618;7.024;2023-07-20T10:05:47;2.78;;;2.13;;
27163;SDS011;14685;50.618;7.024;2023-07-20T10:08:24;3.30;;;2.20;;
27163;SDS011;14685;50.618;7.024;2023-07-20T10:10:57;1.50;;;1.40;;
27163;SDS011;14685;50.618;7.024;2023-07-20T10:13:29;3.28;;;2.00;;
27163;SDS011;14685;50.618;7.024;2023-07-20T10:16:01;2.47;;;1.60;;
27163;SDS011;14685;50.618;7.024;2023-07-20T10:21:19;3.55;;;2.03;;
27163;SDS011;14685;50.618;7.024;2023-07-20T10:23:52;2.20;;;1.73;;
27163;SDS011;14685;50.618;7.024;2023-07-20T10:26:24;2.90;;;1.88;;
27163;SDS011;14685;50.618;7.024;2023-07-20T10:28:52;1.83;;;1.50;;
27163;SDS011;14685;50.618;7.024;2023-07-20T10:31:20;3.17;;;1.63;;
27163;SDS011;14685;50.618;7.024;2023-07-20T10:33:49;1.45;;;1.30;;
27163;SDS011;14685;50.618;7.024;2023-07-20T10:36:21;1.83;;;1.50;;
27163;SDS011;14685;50.618;7.024;2023-07-20T10:38:57;3.58;;;1.98;;
27163;SDS011;14685;50.618;7.024;2023-07-20T10:44:00;3.67;;;1.50;;
27163;SDS011;14685;50.618;7.024;2023-07-20T10:49:09;1.92;;;1.60;;
27163;SDS011;14685;50.618;7.024;2023-07-20T10:51:46;2.55;;;1.40;;
27163;SDS011;14685;50.618;7.024;2023-07-20T10:56:45;2.35;;;1.50;;
27163;SDS011;14685;50.618;7.024;2023-07-20T10:59:35;1.90;;;1.40;;
27163;SDS011;14685;50.618;7.024;2023-07-20T11:02:07;1.38;;;1.00;;
27163;SDS011;14685;50.618;7.024;2023-07-20T11:07:09;1.38;;;1.13;;
27163;SDS011;14685;50.618;7.024;2023-07-20T11:09:37;3.08;;;1.40;;
27163;SDS011;14685;50.618;7.024;2023-07-20T11:12:15;1.38;;;1.10;;
27163;SDS011;14685;50.618;7.024;2023-07-20T11:14:54;1.38;;;1.25;;
27163;SDS011;14685;50.618;7.024;2023-07-20T11:17:29;2.22;;;1.30;;
27163;SDS011;14685;50.618;7.024;2023-07-20T11:19:58;1.90;;;1.25;;
27163;SDS011;14685;50.618;7.024;2023-07-20T11:22:30;1.65;;;1.48;;
27163;SDS011;14685;50.618;7.024;2023-07-20T11:24:58;4.75;;;1.40;;
27163;SDS011;14685;50.618;7.024;2023-07-20T11:27:25;2.70;;;1.40;;
27163;SDS011;14685;50.618;7.024;2023-07-20T11:29:53;3.88;;;1.80;;
27163;SDS011;14685;50.618;7.024;2023-07-20T11:32:23;1.90;;;1.80;;
27163;SDS011;14685;50.618;7.024;2023-07-20T11:34:51;2.35;;;1.42;;
27163;SDS011;14685;50.618;7.024;2023-07-20T11:37:18;2.97;;;1.55;;
27163;SDS011;14685;50.618;7.024;2023-07-20T11:39:45;3.05;;;1.55;;
27163;SDS011;14685;50.618;7.024;2023-07-20T11:42:14;2.92;;;1.50;;
27163;SDS011;14685;50.618;7.024;2023-07-20T11:44:45;2.58;;;1.30;;
27163;SDS011;14685;50.618;7.024;2023-07-20T11:47:18;3.67;;;1.30;;
27163;SDS011;14685;50.618;7.024;2023-07-20T11:49:45;1.70;;;1.60;;
27163;SDS011;14685;50.618;7.024;2023-07-20T11:52:22;1.88;;;1.17;;
27163;SDS011;14685;50.618;7.024;2023-07-20T11:54:50;2.15;;;1.10;;
27163;SDS011;14685;50.618;7.024;2023-07-20T11:57:18;1.83;;;1.52;;
27163;SDS011;14685;50.618;7.024;2023-07-20T11:59:52;3.45;;;1.65;;
27163;SDS011;14685;50.618;7.024;2023-07-20T12:02:38;2.00;;;1.27;;
27163;SDS011;14685;50.618;7.024;2023-07-20T12:05:07;1.67;;;1.20;;
27163;SDS011;14685;50.618;7.024;2023-07-20T12:07:35;1.20;;;1.10;;
27163;SDS011;14685;50.618;7.024;2023-07-20T12:10:06;2.80;;;1.20;;
27163;SDS011;14685;50.618;7.024;2023-07-20T12:12:39;2.30;;;1.60;;
27163;SDS011;14685;50.618;7.024;2023-07-20T12:15:19;1.92;;;1.42;;
27163;SDS011;14685;50.618;7.024;2023-07-20T12:17:52;2.28;;;1.60;;
27163;SDS011;14685;50.618;7.024;2023-07-20T12:20:27;4.28;;;1.75;;
27163;SDS011;14685;50.618;7.024;2023-07-20T12:22:59;3.28;;;1.60;;
27163;SDS011;14685;50.618;7.024;2023-07-20T12:28:09;1.80;;;1.52;;
27163;SDS011;14685;50.618;7.024;2023-07-20T12:30:46;3.38;;;1.50;;
27163;SDS011;14685;50.618;7.024;2023-07-20T12:33:18;2.58;;;1.40;;
27163;SDS011;14685;50.618;7.024;2023-07-20T12:35:45;2.70;;;1.50;;
27163;SDS011;14685;50.618;7.024;2023-07-20T12:38:12;2.92;;;1.50;;
27163;SDS011;14685;50.618;7.024;2023-07-20T12:40:39;3.25;;;1.67;;
27163;SDS011;14685;50.618;7.024;2023-07-20T12:43:07;6.22;;;1.83;;
27163;SDS011;14685;50.618;7.024;2023-07-20T12:45:34;4.28;;;1.73;;
27163;SDS011;14685;50.618;7.024;2023-07-20T12:48:01;3.72;;;1.60;;
27163;SDS011;14685;50.618;7.024;2023-07-20T12:50:29;1.98;;;1.52;;
27163;SDS011;14685;50.618;7.024;2023-07-20T12:52:56;3.53;;;1.63;;
27163;SDS011;14685;50.618;7.024;2023-07-20T12:55:23;2.67;;;1.50;;
27163;SDS011;14685;50.618;7.024;2023-07-20T12:57:53;1.63;;;1.52;;
27163;SDS011;14685;50.618;7.024;2023-07-20T13:00:20;1.80;;;1.60;;
27163;SDS011;14685;50.618;7.024;2023-07-20T13:02:49;3.80;;;1.70;;
27163;SDS011;14685;50.618;7.024;2023-07-20T13:05:35;3.97;;;1.38;;
27163;SDS011;14685;50.618;7.024;2023-07-20T13:08:05;1.95;;;1.45;;
27163;SDS011;14685;50.618;7.024;2023-07-20T13:10:35;2.88;;;1.40;;
27163;SDS011;14685;50.618;7.024;2023-07-20T13:13:02;3.45;;;1.80;;
27163;SDS011;14685;50.618;7.024;2023-07-20T13:15:29;3.53;;;1.40;;
27163;SDS011;14685;50.618;7.024;2023-07-20T13:18:00;3.25;;;1.73;;
27163;SDS011;14685;50.618;7.024;2023-07-20T13:20:27;3.47;;;1.50;;
27163;SDS011;14685;50.618;7.024;2023-07-20T13:22:54;1.75;;;1.20;;
27163;SDS011;14685;50.618;7.024;2023-07-20T13:25:21;1.52;;;1.27;;
27163;SDS011;14685;50.618;7.024;2023-07-20T13:27:48;4.68;;;1.35;;
27163;SDS011;14685;50.618;7.024;2023-07-20T13:30:16;1.35;;;1.25;;
27163;SDS011;14685;50.618;7.024;2023-07-20T13:32:43;2.72;;;1.38;;
27163;SDS011;14685;50.618;7.024;2023-07-20T13:35:11;6.13;;;1.25;;
27163;SDS011;14685;50.618;7.024;2023-07-20T13:37:38;2.30;;;1.30;;
27163;SDS011;14685;50.618;7.024;2023-07-20T13:40:06;1.20;;;1.10;;
27163;SDS011;14685;50.618;7.024;2023-07-20T13:42:38;2.58;;;1.40;;
27163;SDS011;14685;50.618;7.024;2023-07-20T13:45:07;2.45;;;1.27;;
27163;SDS011;14685;50.618;7.024;2023-07-20T13:47:35;3.20;;;1.52;;
27163;SDS011;14685;50.618;7.024;2023-07-20T13:50:03;2.97;;;1.58;;
27163;SDS011;14685;50.618;7.024;2023-07-20T13:52:31;2.25;;;1.10;;
27163;SDS011;14685;50.618;7.024;2023-07-20T13:55:01;2.90;;;1.20;;
27163;SDS011;14685;50.618;7.024;2023-07-20T13:57:30;2.42;;;1.30;;
27163;SDS011;14685;50.618;7.024;2023-07-20T14:00:01;1.98;;;1.48;;
27163;SDS011;14685;50.618;7.024;2023-07-20T14:02:32;1.80;;;1.25;;
27163;SDS011;14685;50.618;7.024;2023-07-20T14:05:01;2.17;;;1.63;;
27163;SDS011;14685;50.618;7.024;2023-07-20T14:07:32;1.85;;;1.30;;
27163;SDS011;14685;50.618;7.024;2023-07-20T14:10:00;1.50;;;1.10;;
27163;SDS011;14685;50.618;7.024;2023-07-20T14:12:30;2.40;;;1.35;;
27163;SDS011;14685;50.618;7.024;2023-07-20T14:14:57;2.00;;;1.30;;
27163;SDS011;14685;50.618;7.024;2023-07-20T14:17:24;1.80;;;1.10;;
27163;SDS011;14685;50.618;7.024;2023-07-20T14:19:52;1.00;;;1.00;;
27163;SDS011;14685;50.618;7.024;2023-07-20T14:22:19;1.30;;;1.20;;
27163;SDS011;14685;50.618;7.024;2023-07-20T14:24:46;2.05;;;1.23;;
27163;SDS011;14685;50.618;7.024;2023-07-20T14:27:13;0.93;;;0.90;;
27163;SDS011;14685;50.618;7.024;2023-07-20T14:29:40;3.08;;;1.00;;
27163;SDS011;14685;50.618;7.024;2023-07-20T14:32:08;1.35;;;0.95;;
27163;SDS011;14685;50.618;7.024;2023-07-20T14:34:36;2.00;;;1.08;;
27163;SDS011;14685;50.618;7.024;2023-07-20T14:37:05;1.45;;;1.23;;
27163;SDS011;14685;50.618;7.024;2023-07-20T14:39:32;2.53;;;1.50;;
27163;SDS011;14685;50.618;7.024;2023-07-20T14:41:59;3.50;;;1.35;;
27163;SDS011;14685;50.618;7.024;2023-07-20T14:44:26;2.53;;;1.38;;
27163;SDS011;14685;50.618;7.024;2023-07-20T14:46:53;2.25;;;1.55;;
27163;SDS011;14685;50.618;7.024;2023-07-20T14:49:39;1.63;;;1.30;;
27163;SDS011;14685;50.618;7.024;2023-07-20T14:52:10;5.43;;;1.55;;
27163;SDS011;14685;50.618;7.024;2023-07-20T14:54:42;2.38;;;1.40;;
27163;SDS011;14685;50.618;7.024;2023-07-20T14:57:08;3.08;;;1.35;;
27163;SDS011;14685;50.618;7.024;2023-07-20T14:59:41;1.90;;;1.40;;
27163;SDS011;14685;50.618;7.024;2023-07-20T15:02:08;1.77;;;1.40;;
27163;SDS011;14685;50.618;7.024;2023-07-20T15:04:35;3.10;;;1.67;;
27163;SDS011;14685;50.618;7.024;2023-07-20T15:07:02;1.55;;;1.30;;
27163;SDS011;14685;50.618;7.024;2023-07-20T15:09:30;4.60;;;1.50;;
27163;SDS011;14685;50.618;7.024;2023-07-20T15:11:57;4.03;;;1.60;;
27163;SDS011;14685;50.618;7.024;2023-07-20T15:14:24;3.50;;;1.77;;
27163;SDS011;14685;50.618;7.024;2023-07-20T15:16:51;2.35;;;1.55;;
27163;SDS011;14685;50.618;7.024;2023-07-20T15:19:19;3.95;;;1.58;;
27163;SDS011;14685;50.618;7.024;2023-07-20T15:21:48;2.15;;;1.42;;
27163;SDS011;14685;50.618;7.024;2023-07-20T15:24:15;2.90;;;1.15;;